• Join FlightAware (Why Join?)
  • Login
  • US Flag 
06:56PM EDT


 

Airport Tracker/Info


-or-


 

Live Flight TrackerFlight Track Log ✈ DAL3860 ✈ 26-Apr-2013 ✈ KCLE - KMSP

Flight Track Log - Related Links

Times and Time Zones

All times are in EDT time to prevent confusion due to time zone crossing. See the DAL3860 flight status page for this flight to view local times or setup timezone preferences in your user account.

Time Position Orientation Groundspeed Altitude Reporting Facility
EDT Latitude Longitude Course Direction KTS MPH feet Rate Location/Type
09:16AM 41.3919 -81.8839 270° West 174 200 1,700  Level Cleveland Center
09:16AM 41.3914 -81.9144 269° West 180 207 2,700 2,100 Climbing Cleveland Center
09:17AM 41.3883 -81.9975 267° West 218 251 4,900 2,340 Climbing Cleveland Center
09:18AM 41.3537 -82.2147 260° West  Level FlightAware Approximate
09:18AM 41.3767 -82.0994 261° West 264 304 8,000  Level Cleveland Center
09:19AM 41.3372 -82.3382 260° West  Level FlightAware Approximate
09:19AM 41.3608 -82.1961 258° West 279 321 10,800  Level Cleveland Center
09:20AM 41.3105 -82.4582 252° West  Level FlightAware Approximate
09:20AM 41.3447 -82.3008 258° West 279 321 12,600  Level Cleveland Center
09:21AM 41.3000 -82.5814 270° West  Level FlightAware Approximate
09:21AM 41.3239 -82.4192 257° West 307 353 14,100  Level Cleveland Center
09:22AM 41.3053 -82.5403 258° West 337 388 15,600 1,500 Climbing Cleveland Center
09:23AM 41.2883 -82.6722 260° West 359 413 17,200 1,260 Climbing Cleveland Center
09:24AM 41.2692 -82.8014 259° West 364 419 18,200 1,080 Climbing Cleveland Center
09:25AM 41.2522 -82.9197 259° West 369 425 19,400 1,260 Climbing Cleveland Center
09:26AM 41.2622 -83.0500 276° West 363 418 20,800 1,200 Climbing Cleveland Center
09:27AM 41.3069 -83.1844 294° West 352 405 21,900 1,020 Climbing Cleveland Center
09:28AM 41.3458 -83.3103 292° West 367 422 22,900 960 Climbing Cleveland Center
09:29AM 41.3864 -83.4394 293° West 372 428 23,900 960 Climbing Cleveland Center
09:30AM 41.4269 -83.5658 293° West 378 435 24,900 960 Climbing Cleveland Center
09:31AM 41.4506 -83.7000 283° West 378 435 25,900 540 Climbing Cleveland Center
09:32AM 41.4569 -83.8417 273° West 378 435 26,000  Climbing Cleveland Center
09:33AM 41.4631 -83.9889 273° West 390 449 26,000 60 Level Cleveland Center
09:34AM 41.4689 -84.1389 273° West 402 463 26,200 660 Climbing Cleveland Center
09:36AM 41.4822 -84.4161 274° West 383 441 28,000 600 Climbing Chicago Center
09:37AM 41.4867 -84.5586 272° West 383 441 28,000  Level Chicago Center
09:38AM 41.4919 -84.7022 273° West 388 447 28,000  Level Chicago Center
09:39AM 41.4956 -84.8442 272° West 386 444 28,000  Level Chicago Center
09:40AM 41.4997 -84.9875 272° West 386 444 28,000  Level Chicago Center
09:41AM 41.5039 -85.1317 272° West 388 447 28,000  Level Chicago Center
09:42AM 41.5075 -85.2739 272° West 384 442 28,000  Level Chicago Center
09:43AM 41.5108 -85.4200 272° West 384 442 28,000  Level Chicago Center
09:44AM 41.5144 -85.5642 272° West 380 437 28,000  Level Chicago Center
09:46AM 41.5258 -85.7317 275° West 377 434 28,000  Level Chicago Center
09:47AM 41.5917 -85.8431 308° West 379 436 28,000 60 Level Chicago Center
09:48AM 41.6614 -85.9506 311° West 382 440 28,200 600 Climbing Chicago Center
09:49AM 41.7294 -86.0553 311° West 375 432 29,300 840 Climbing Chicago Center
09:50AM 41.7958 -86.1556 312° West 361 415 30,000 300 Climbing Chicago Center
09:51AM 41.8597 -86.2581 310° West 360 414 30,000  Level Chicago Center
09:52AM 41.9267 -86.3631 311° West 369 425 30,000  Level Chicago Center
09:53AM 42.0075 -86.4892 311° West 371 427 30,000  Level Chicago Center
09:54AM 42.0744 -86.5942 311° West 369 425 30,000  Level Chicago Center
09:55AM 42.1419 -86.7019 310° West 375 432 30,000  Level Chicago Center
09:56AM 42.2097 -86.8089 311° West 378 435 30,000  Level Chicago Center
09:57AM 42.2781 -86.9158 311° West 379 436 30,000  Level Chicago Center
09:58AM 42.3464 -87.0247 310° West 380 437 30,000  Level Chicago Center
09:59AM 42.4253 -87.1528 310° West 374 430 30,000  Level Chicago Center
10:00AM 42.4942 -87.2603 311° West 378 435 30,000  Level Chicago Center
10:01AM 42.5611 -87.3697 310° West 380 437 30,000  Level Chicago Center
10:02AM 42.6333 -87.4858 310° West 373 429 30,000  Level Chicago Center
10:03AM 42.6983 -87.5953 309° West 371 427 30,000  Level Chicago Center
10:04AM 42.7656 -87.7028 310° West 372 428 30,000  Level Chicago Center
10:05AM 42.8314 -87.8122 309° West 374 430 30,000  Level Chicago Center
10:07AM 42.9758 -88.0494 310° West 373 429 30,000  Level Minneapolis Center
10:08AM 43.0414 -88.1586 309° West 370 426 30,000  Level Chicago Center
10:09AM 43.1072 -88.2681 310° West 373 429 30,000  Level Chicago Center
10:10AM 43.1728 -88.3775 309° West 371 427 30,000  Level Chicago Center
10:11AM 43.2356 -88.4842 309° West 360 414 30,000  Level Chicago Center
10:12AM 43.2972 -88.5908 308° West 352 405 30,000  Level Chicago Center
10:13AM 43.3706 -88.7175 309° West 356 410 30,000  Level Chicago Center
10:14AM 43.4344 -88.8289 308° West 366 421 30,000  Level Chicago Center
10:15AM 43.4994 -88.9394 309° West 369 425 30,000  Level Chicago Center
10:16AM 43.5644 -89.0536 308° West 375 432 30,000  Level Chicago Center
10:18AM 43.6300 -89.1681 308° West 378 435 30,000  Level Chicago Center
10:19AM 43.6950 -89.2822 308° West 379 436 30,000  Level Chicago Center
10:20AM 43.7700 -89.4156 308° West 377 434 30,000  Level Minneapolis Center
10:21AM 43.8356 -89.5292 309° West 378 435 30,000  Level Minneapolis Center
10:22AM 43.9003 -89.6453 308° West 379 436 30,000  Level Minneapolis Center
10:23AM 43.9644 -89.7603 308° West 378 435 30,000  Level Minneapolis Center
10:24AM 44.0394 -89.8953 308° West 378 435 30,000  Level Minneapolis Center
10:25AM 44.1039 -90.0108 308° West 379 436 30,000  Level Minneapolis Center
10:26AM 44.1683 -90.1269 308° West 379 436 30,000  Level Minneapolis Center
10:27AM 44.2631 -90.2006 331° Northwest 394 453 30,000  Level Minneapolis Center
10:28AM 44.3642 -90.2594 337° Northwest 395 455 30,000  Level Minneapolis Center
10:29AM 44.4661 -90.3181 338° Northwest 395 455 30,000 -300 Level Minneapolis Center
10:30AM 44.5814 -90.4028 332° Northwest 401 461 29,500 -840 Descending Minneapolis Center
10:31AM 44.6714 -90.4886 326° Northwest 393 452 28,300 -780 Descending Minneapolis Center
10:32AM 44.7192 -90.6078 299° West 387 445 28,000 -180 Descending Minneapolis Center
10:33AM 44.7506 -90.7556 287° West 395 455 28,000 -840 Level Minneapolis Center
10:34AM 44.7856 -90.9336 286° West 397 457 26,300 -1,680 Descending Minneapolis Center
10:35AM 44.8144 -91.0803 286° West 394 453 24,600 -1,140 Descending Minneapolis Center
10:36AM 44.8442 -91.2258 286° West 391 450 24,000 -360 Descending Minneapolis Center
10:37AM 44.8772 -91.3942 286° West 394 453 23,900 -1,080 Descending Minneapolis Center
10:38AM 44.9042 -91.5311 286° West 382 440 21,800 -2,160 Descending Minneapolis Center
10:39AM 44.9344 -91.6803 286° West 365 420 19,500 -2,040 Descending Minneapolis Center
10:40AM 44.9611 -91.8194 285° West 367 422 17,600 -1,920 Descending Minneapolis Center
10:41AM 44.9889 -91.9556 286° West 362 417 15,600 -1,980 Descending Minneapolis Center
10:42AM 45.0125 -92.0844 285° West 344 396 13,600 -1,980 Descending Minneapolis Center
10:43AM 45.0350 -92.2111 284° West 336 387 11,600 -1,020 Descending Minneapolis Center
10:45AM 45.0333 -92.4167 269° West 333 383 11,100 -300 Descending Minneapolis TRACON
10:45AM 45.0181 -92.4911 254° West 334 384 11,000 -120 Descending Minneapolis Center
10:47AM 44.9981 -92.6186 258° West 333 383 11,000 -60 Level Minneapolis Center
10:48AM 44.9767 -92.7447 257° West 332 382 10,900 -480 Descending Minneapolis Center
10:49AM 44.9597 -92.8519 257° West 274 315 10,100 -1,320 Descending Minneapolis Center
10:50AM 44.9442 -92.9478 257° West 251 289 8,200 -1,020 Descending Minneapolis Center
10:51AM 44.9208 -93.0628 254° West 263 303 8,000 -120 Descending Minneapolis Center
10:52AM 44.8647 -93.1308 221° Southwest 270 311 8,000  Level Minneapolis Center
10:53AM 44.8300 -93.2125 239° Southwest 257 296 8,000  Level Minneapolis Center
10:54AM 44.8236 -93.3106 265° West 260 299 8,000 -540 Level Minneapolis Center
10:55AM 44.8386 -93.4019 283° West 252 290 6,900 -1,500 Descending Minneapolis Center
10:56AM 44.8772 -93.5050 298° West 249 287 5,000 -1,020 Descending Minneapolis Center
10:57AM 44.9294 -93.4864 14° North 211 243 4,800 -540 Descending Minneapolis Center
10:58AM 44.9450 -93.4156 73° East 207 238 4,000 -780 Descending Minneapolis Center